Skip Navigation Links
NOAA logo - Click to go to the NOAA homepage
NOAA's National Weather Service
Alaska Aviation Weather Unit
  NWS logo - Click to go to the NWS homepage
Left Navbar Graphic     22 AKDT = 06 GMT

   
NOAA is celebrating 200 years of science, service, and stewardship. Visit the NOAA 200th celebration Web site to learn more.
USA.gov is the U.S. Government's official Web portal to all Federal, state and local government Web resources and services.
Facebook
NWS on Facebook

Important Change Regarding the AAWU Web Presence

 

Over the last several months, the AAWU has been working to navigate its webpages to a nationally supported server. Security, as well as other needs, have necessitated the change.  In the process, we have made an effort to enhance the functionality of our website, as well as some of our products. As of June 20, 2017, aawu.arh.noaa.gov will be discontinued. The new AAWU web address is weather.gov/aawu. It is now live and will run in-parallel with the old site until it is discontinued. Please send any feedback or questions regarding the new webpages to nws.ar.aawu.webauthors@noaa.gov.  Thank you for your patience during this time of transition.
AAWU Home :: Display TAF Add Bookmark
METAR PAOU 280056Z AUTO 33013KT 10SM OVC006 04/03 A2987 RMK AO2 SLP113
     T00440028=

SPECI PAOU 280126Z AUTO 34013KT 8SM OVC004 04/03 A2986 RMK AO2 CIG
     004V007=

SPECI PAOU 280137Z AUTO 34012KT 10SM BKN006 OVC010 04/03 A2986 RMK AO2
     CIG 004V009=

METAR PAOU 280156Z AUTO 35011KT 10SM OVC008 04/03 A2986 RMK AO2
 SLP112 T00440028=

METAR PAOU 280256Z AUTO 34010KT 10SM OVC008 04/02 A2985 RMK AO2
 SLP108 T00440022 58007=

SPECI PAOU 280310Z AUTO 32009KT 10SM OVC010 04/02 A2985 RMK AO2=

METAR PAOU 280356Z AUTO 35009KT 10SM OVC010 04/02 A2984 RMK AO2 SLP106
     T00390022=

SPECI PAOU 280448Z AUTO 34011KT 10SM OVC008 04/02 A2984 RMK AO2 CIG
     007V010=

METAR PAOU 280456Z AUTO 35008KT 10SM OVC008 03/02 A2984 RMK AO2
 SLP104 T00330022=

METAR PAOU 280556Z AUTO 33009KT 10SM OVC008 04/03 A2983 RMK AO2
 SLP102 T00390028 10044 20033 58005=

SPECI PAOU 280626Z AUTO 33009KT 2 1/2SM BR OVC004 04/03 A2983 RMK AO2
     VIS 1 1/2V4 CIG 003V007=


NOAA's National Weather Service
Alaska Aviation Weather Unit
6930 Sand Lake Road
Anchorage, AK 99502-1845
Disclaimer
Credits
Glossary
Privacy Policy
About Us
Career Opportunities
Contact AAWU Internet Services Site last modified: April, 17th 2012